sensor_id;sensor_type;location;lat;lon;timestamp;P1;durP1;ratioP1;P2;durP2;ratioP2
44254;SDS011;29933;47.226;15.734;2022-12-18T00:01:17;4.85;;;1.60;;
44254;SDS011;29933;47.226;15.734;2022-12-18T00:03:46;2.08;;;1.30;;
44254;SDS011;29933;47.226;15.734;2022-12-18T00:06:13;1.80;;;1.25;;
44254;SDS011;29933;47.226;15.734;2022-12-18T00:08:40;3.92;;;1.70;;
44254;SDS011;29933;47.226;15.734;2022-12-18T00:11:08;2.28;;;1.70;;
44254;SDS011;29933;47.226;15.734;2022-12-18T00:13:43;4.38;;;1.73;;
44254;SDS011;29933;47.226;15.734;2022-12-18T00:16:11;1.98;;;1.48;;
44254;SDS011;29933;47.226;15.734;2022-12-18T00:18:45;3.15;;;0.77;;
44254;SDS011;29933;47.226;15.734;2022-12-18T00:21:16;3.33;;;1.45;;
44254;SDS011;29933;47.226;15.734;2022-12-18T00:23:43;1.77;;;1.45;;
44254;SDS011;29933;47.226;15.734;2022-12-18T00:26:14;1.33;;;1.33;;
44254;SDS011;29933;47.226;15.734;2022-12-18T00:28:45;3.90;;;1.20;;
44254;SDS011;29933;47.226;15.734;2022-12-18T00:31:19;5.25;;;2.42;;
44254;SDS011;29933;47.226;15.734;2022-12-18T00:33:47;1.85;;;1.45;;
44254;SDS011;29933;47.226;15.734;2022-12-18T00:36:14;3.83;;;2.13;;
44254;SDS011;29933;47.226;15.734;2022-12-18T00:38:46;0.88;;;0.88;;
44254;SDS011;29933;47.226;15.734;2022-12-18T00:41:14;2.65;;;0.77;;
44254;SDS011;29933;47.226;15.734;2022-12-18T00:44:02;1.80;;;1.25;;
44254;SDS011;29933;47.226;15.734;2022-12-18T00:46:30;4.28;;;2.33;;
44254;SDS011;29933;47.226;15.734;2022-12-18T00:48:56;3.35;;;1.40;;
44254;SDS011;29933;47.226;15.734;2022-12-18T00:51:23;1.70;;;0.95;;
44254;SDS011;29933;47.226;15.734;2022-12-18T00:53:49;1.63;;;1.35;;
44254;SDS011;29933;47.226;15.734;2022-12-18T00:56:17;2.13;;;1.02;;
44254;SDS011;29933;47.226;15.734;2022-12-18T00:58:43;3.55;;;1.48;;
44254;SDS011;29933;47.226;15.734;2022-12-18T01:01:08;1.15;;;0.93;;
44254;SDS011;29933;47.226;15.734;2022-12-18T01:03:34;5.50;;;1.50;;
44254;SDS011;29933;47.226;15.734;2022-12-18T01:06:05;1.88;;;1.52;;
44254;SDS011;29933;47.226;15.734;2022-12-18T01:08:35;4.07;;;1.65;;
44254;SDS011;29933;47.226;15.734;2022-12-18T01:11:06;4.10;;;1.42;;
44254;SDS011;29933;47.226;15.734;2022-12-18T01:13:38;3.70;;;0.85;;
44254;SDS011;29933;47.226;15.734;2022-12-18T01:16:04;3.10;;;1.67;;
44254;SDS011;29933;47.226;15.734;2022-12-18T01:18:31;3.15;;;2.60;;
44254;SDS011;29933;47.226;15.734;2022-12-18T01:20:57;2.45;;;1.80;;
44254;SDS011;29933;47.226;15.734;2022-12-18T01:23:23;2.88;;;1.95;;
44254;SDS011;29933;47.226;15.734;2022-12-18T01:25:51;1.80;;;1.70;;
44254;SDS011;29933;47.226;15.734;2022-12-18T01:28:16;2.25;;;2.10;;
44254;SDS011;29933;47.226;15.734;2022-12-18T01:30:42;2.40;;;1.13;;
44254;SDS011;29933;47.226;15.734;2022-12-18T01:33:08;1.38;;;1.10;;
44254;SDS011;29933;47.226;15.734;2022-12-18T01:35:39;3.92;;;1.85;;
44254;SDS011;29933;47.226;15.734;2022-12-18T01:38:06;2.33;;;1.40;;
44254;SDS011;29933;47.226;15.734;2022-12-18T01:40:33;3.95;;;1.60;;
44254;SDS011;29933;47.226;15.734;2022-12-18T01:42:58;2.72;;;2.00;;
44254;SDS011;29933;47.226;15.734;2022-12-18T01:45:26;4.38;;;1.83;;
44254;SDS011;29933;47.226;15.734;2022-12-18T01:47:57;1.38;;;1.20;;
44254;SDS011;29933;47.226;15.734;2022-12-18T01:53:11;2.95;;;2.30;;
44254;SDS011;29933;47.226;15.734;2022-12-18T01:55:45;7.07;;;2.08;;
44254;SDS011;29933;47.226;15.734;2022-12-18T01:58:18;2.35;;;1.67;;
44254;SDS011;29933;47.226;15.734;2022-12-18T02:00:48;2.17;;;1.35;;
44254;SDS011;29933;47.226;15.734;2022-12-18T02:03:14;2.80;;;1.60;;
44254;SDS011;29933;47.226;15.734;2022-12-18T02:05:44;1.95;;;1.83;;
44254;SDS011;29933;47.226;15.734;2022-12-18T02:08:33;4.00;;;1.58;;
44254;SDS011;29933;47.226;15.734;2022-12-18T02:11:18;2.25;;;1.75;;
44254;SDS011;29933;47.226;15.734;2022-12-18T02:14:03;3.22;;;1.42;;
44254;SDS011;29933;47.226;15.734;2022-12-18T02:19:28;4.03;;;2.15;;
44254;SDS011;29933;47.226;15.734;2022-12-18T02:22:15;0.52;;;0.35;;
44254;SDS011;29933;47.226;15.734;2022-12-18T02:27:32;3.05;;;1.83;;
44254;SDS011;29933;47.226;15.734;2022-12-18T02:30:02;2.97;;;2.60;;
44254;SDS011;29933;47.226;15.734;2022-12-18T02:32:31;2.20;;;1.70;;
44254;SDS011;29933;47.226;15.734;2022-12-18T02:35:05;0.45;;;0.45;;
44254;SDS011;29933;47.226;15.734;2022-12-18T02:37:34;2.55;;;1.90;;
44254;SDS011;29933;47.226;15.734;2022-12-18T02:40:04;2.92;;;1.60;;
44254;SDS011;29933;47.226;15.734;2022-12-18T02:42:31;4.38;;;1.50;;
44254;SDS011;29933;47.226;15.734;2022-12-18T02:44:57;4.85;;;2.20;;
44254;SDS011;29933;47.226;15.734;2022-12-18T02:47:24;5.97;;;1.45;;
44254;SDS011;29933;47.226;15.734;2022-12-18T03:01:08;2.35;;;1.73;;
44254;SDS011;29933;47.226;15.734;2022-12-18T03:03:42;2.15;;;1.83;;
44254;SDS011;29933;47.226;15.734;2022-12-18T03:06:25;3.35;;;1.23;;
44254;SDS011;29933;47.226;15.734;2022-12-18T03:09:01;2.00;;;1.60;;
44254;SDS011;29933;47.226;15.734;2022-12-18T03:11:37;2.28;;;1.85;;
44254;SDS011;29933;47.226;15.734;2022-12-18T03:14:25;2.97;;;1.73;;
44254;SDS011;29933;47.226;15.734;2022-12-18T03:19:23;3.85;;;2.88;;
44254;SDS011;29933;47.226;15.734;2022-12-18T03:21:53;7.35;;;3.53;;
44254;SDS011;29933;47.226;15.734;2022-12-18T03:24:22;3.97;;;1.80;;
44254;SDS011;29933;47.226;15.734;2022-12-18T03:26:52;4.15;;;1.35;;
44254;SDS011;29933;47.226;15.734;2022-12-18T03:29:27;3.50;;;1.48;;
44254;SDS011;29933;47.226;15.734;2022-12-18T03:32:16;3.55;;;1.60;;
44254;SDS011;29933;47.226;15.734;2022-12-18T03:34:56;1.40;;;1.23;;
44254;SDS011;29933;47.226;15.734;2022-12-18T03:37:28;3.75;;;1.80;;
44254;SDS011;29933;47.226;15.734;2022-12-18T03:39:54;4.45;;;2.65;;
44254;SDS011;29933;47.226;15.734;2022-12-18T03:53:25;3.97;;;1.48;;
44254;SDS011;29933;47.226;15.734;2022-12-18T03:56:15;2.33;;;1.55;;
44254;SDS011;29933;47.226;15.734;2022-12-18T03:58:43;1.85;;;1.42;;
44254;SDS011;29933;47.226;15.734;2022-12-18T04:01:11;0.85;;;0.77;;
44254;SDS011;29933;47.226;15.734;2022-12-18T04:03:40;1.45;;;1.35;;
44254;SDS011;29933;47.226;15.734;2022-12-18T04:06:09;0.40;;;0.40;;
44254;SDS011;29933;47.226;15.734;2022-12-18T04:08:36;1.25;;;1.13;;
44254;SDS011;29933;47.226;15.734;2022-12-18T04:11:03;3.70;;;1.85;;
44254;SDS011;29933;47.226;15.734;2022-12-18T04:13:31;1.35;;;1.13;;
44254;SDS011;29933;47.226;15.734;2022-12-18T04:16:01;3.22;;;1.38;;
44254;SDS011;29933;47.226;15.734;2022-12-18T04:18:27;4.00;;;2.05;;
44254;SDS011;29933;47.226;15.734;2022-12-18T04:20:52;4.60;;;1.90;;
44254;SDS011;29933;47.226;15.734;2022-12-18T04:23:18;1.50;;;1.25;;
44254;SDS011;29933;47.226;15.734;2022-12-18T04:25:45;0.63;;;0.40;;
44254;SDS011;29933;47.226;15.734;2022-12-18T04:28:12;0.60;;;0.60;;
44254;SDS011;29933;47.226;15.734;2022-12-18T04:30:38;3.10;;;1.60;;
44254;SDS011;29933;47.226;15.734;2022-12-18T04:33:05;1.33;;;1.25;;
44254;SDS011;29933;47.226;15.734;2022-12-18T04:35:35;1.67;;;1.50;;
44254;SDS011;29933;47.226;15.734;2022-12-18T04:38:01;1.35;;;1.35;;
44254;SDS011;29933;47.226;15.734;2022-12-18T04:40:26;2.40;;;2.03;;
44254;SDS011;29933;47.226;15.734;2022-12-18T04:42:52;3.20;;;1.50;;
44254;SDS011;29933;47.226;15.734;2022-12-18T04:45:18;2.90;;;1.92;;
44254;SDS011;29933;47.226;15.734;2022-12-18T04:47:44;2.38;;;1.45;;
44254;SDS011;29933;47.226;15.734;2022-12-18T04:50:10;1.17;;;0.82;;
44254;SDS011;29933;47.226;15.734;2022-12-18T04:52:36;6.45;;;1.58;;
44254;SDS011;29933;47.226;15.734;2022-12-18T04:55:02;3.15;;;1.23;;
44254;SDS011;29933;47.226;15.734;2022-12-18T04:57:28;7.18;;;1.98;;
44254;SDS011;29933;47.226;15.734;2022-12-18T04:59:54;2.67;;;1.33;;
44254;SDS011;29933;47.226;15.734;2022-12-18T05:02:20;2.38;;;1.38;;
44254;SDS011;29933;47.226;15.734;2022-12-18T05:04:46;1.30;;;1.17;;
44254;SDS011;29933;47.226;15.734;2022-12-18T05:07:11;1.85;;;1.75;;
44254;SDS011;29933;47.226;15.734;2022-12-18T05:09:37;3.20;;;1.88;;
44254;SDS011;29933;47.226;15.734;2022-12-18T05:12:03;4.05;;;2.55;;
44254;SDS011;29933;47.226;15.734;2022-12-18T05:14:29;2.30;;;1.58;;
44254;SDS011;29933;47.226;15.734;2022-12-18T05:16:55;4.15;;;1.65;;
44254;SDS011;29933;47.226;15.734;2022-12-18T05:19:21;3.30;;;1.88;;
44254;SDS011;29933;47.226;15.734;2022-12-18T05:21:47;5.95;;;2.47;;
44254;SDS011;29933;47.226;15.734;2022-12-18T05:24:13;4.85;;;3.08;;
44254;SDS011;29933;47.226;15.734;2022-12-18T05:26:39;3.13;;;1.42;;
44254;SDS011;29933;47.226;15.734;2022-12-18T05:29:05;2.55;;;1.05;;
44254;SDS011;29933;47.226;15.734;2022-12-18T05:31:30;2.25;;;1.55;;
44254;SDS011;29933;47.226;15.734;2022-12-18T05:33:57;1.20;;;1.10;;
44254;SDS011;29933;47.226;15.734;2022-12-18T05:36:23;4.80;;;2.08;;
44254;SDS011;29933;47.226;15.734;2022-12-18T05:38:49;4.97;;;2.65;;
44254;SDS011;29933;47.226;15.734;2022-12-18T05:41:14;2.42;;;1.58;;
44254;SDS011;29933;47.226;15.734;2022-12-18T05:43:40;3.22;;;2.33;;
44254;SDS011;29933;47.226;15.734;2022-12-18T05:46:08;3.47;;;1.80;;
44254;SDS011;29933;47.226;15.734;2022-12-18T05:48:41;5.93;;;2.33;;
44254;SDS011;29933;47.226;15.734;2022-12-18T05:51:08;5.18;;;1.52;;
44254;SDS011;29933;47.226;15.734;2022-12-18T05:56:03;3.20;;;1.38;;
44254;SDS011;29933;47.226;15.734;2022-12-18T05:58:32;5.18;;;3.25;;
44254;SDS011;29933;47.226;15.734;2022-12-18T06:01:05;7.72;;;2.42;;
44254;SDS011;29933;47.226;15.734;2022-12-18T06:03:38;6.35;;;2.83;;
44254;SDS011;29933;47.226;15.734;2022-12-18T06:06:04;3.97;;;1.40;;
44254;SDS011;29933;47.226;15.734;2022-12-18T06:08:38;3.13;;;2.83;;
44254;SDS011;29933;47.226;15.734;2022-12-18T06:11:04;3.80;;;2.03;;
44254;SDS011;29933;47.226;15.734;2022-12-18T06:13:30;5.20;;;2.92;;
44254;SDS011;29933;47.226;15.734;2022-12-18T06:15:56;3.45;;;2.45;;
44254;SDS011;29933;47.226;15.734;2022-12-18T06:18:21;4.18;;;2.15;;
44254;SDS011;29933;47.226;15.734;2022-12-18T06:20:57;1.60;;;1.23;;
44254;SDS011;29933;47.226;15.734;2022-12-18T06:23:24;2.33;;;2.00;;
44254;SDS011;29933;47.226;15.734;2022-12-18T06:25:50;3.35;;;1.58;;
44254;SDS011;29933;47.226;15.734;2022-12-18T06:28:17;4.00;;;1.67;;
44254;SDS011;29933;47.226;15.734;2022-12-18T06:30:43;2.20;;;2.00;;
44254;SDS011;29933;47.226;15.734;2022-12-18T06:33:10;3.72;;;1.83;;
44254;SDS011;29933;47.226;15.734;2022-12-18T06:35:36;2.88;;;2.13;;
44254;SDS011;29933;47.226;15.734;2022-12-18T06:38:02;3.25;;;3.03;;
44254;SDS011;29933;47.226;15.734;2022-12-18T06:40:28;5.15;;;2.33;;
44254;SDS011;29933;47.226;15.734;2022-12-18T06:42:54;3.67;;;2.00;;
44254;SDS011;29933;47.226;15.734;2022-12-18T06:45:20;4.85;;;2.40;;
44254;SDS011;29933;47.226;15.734;2022-12-18T06:47:46;3.83;;;2.20;;
44254;SDS011;29933;47.226;15.734;2022-12-18T06:50:12;3.55;;;2.25;;
44254;SDS011;29933;47.226;15.734;2022-12-18T06:52:39;3.17;;;1.83;;
44254;SDS011;29933;47.226;15.734;2022-12-18T06:55:05;4.68;;;2.83;;
44254;SDS011;29933;47.226;15.734;2022-12-18T06:57:33;4.95;;;2.63;;
44254;SDS011;29933;47.226;15.734;2022-12-18T06:59:59;6.40;;;2.38;;
44254;SDS011;29933;47.226;15.734;2022-12-18T07:02:25;4.03;;;2.58;;
44254;SDS011;29933;47.226;15.734;2022-12-18T07:04:51;3.50;;;1.90;;
44254;SDS011;29933;47.226;15.734;2022-12-18T07:07:17;3.42;;;1.85;;
44254;SDS011;29933;47.226;15.734;2022-12-18T07:09:43;2.30;;;2.10;;
44254;SDS011;29933;47.226;15.734;2022-12-18T07:12:08;25.75;;;8.98;;
44254;SDS011;29933;47.226;15.734;2022-12-18T07:14:34;17.33;;;8.77;;
44254;SDS011;29933;47.226;15.734;2022-12-18T07:17:00;10.43;;;5.60;;
44254;SDS011;29933;47.226;15.734;2022-12-18T07:19:26;13.98;;;5.60;;
44254;SDS011;29933;47.226;15.734;2022-12-18T07:21:52;7.70;;;3.55;;
44254;SDS011;29933;47.226;15.734;2022-12-18T07:24:18;4.88;;;2.20;;
44254;SDS011;29933;47.226;15.734;2022-12-18T07:26:47;2.60;;;1.50;;
44254;SDS011;29933;47.226;15.734;2022-12-18T07:29:13;4.93;;;2.05;;
44254;SDS011;29933;47.226;15.734;2022-12-18T07:31:39;6.15;;;2.40;;
44254;SDS011;29933;47.226;15.734;2022-12-18T07:34:05;3.88;;;1.90;;
44254;SDS011;29933;47.226;15.734;2022-12-18T07:39:00;3.03;;;2.03;;
44254;SDS011;29933;47.226;15.734;2022-12-18T07:41:25;3.10;;;2.05;;
44254;SDS011;29933;47.226;15.734;2022-12-18T07:43:51;2.05;;;1.25;;
44254;SDS011;29933;47.226;15.734;2022-12-18T07:46:17;2.88;;;1.23;;
44254;SDS011;29933;47.226;15.734;2022-12-18T07:48:45;3.00;;;1.35;;
44254;SDS011;29933;47.226;15.734;2022-12-18T07:51:11;2.03;;;1.05;;
44254;SDS011;29933;47.226;15.734;2022-12-18T07:53:37;3.30;;;2.10;;
44254;SDS011;29933;47.226;15.734;2022-12-18T07:56:08;4.45;;;2.13;;
44254;SDS011;29933;47.226;15.734;2022-12-18T07:58:36;2.60;;;1.60;;
44254;SDS011;29933;47.226;15.734;2022-12-18T08:01:06;6.70;;;2.42;;
44254;SDS011;29933;47.226;15.734;2022-12-18T08:03:35;4.65;;;3.30;;
44254;SDS011;29933;47.226;15.734;2022-12-18T08:06:02;1.50;;;1.30;;
44254;SDS011;29933;47.226;15.734;2022-12-18T08:08:31;1.90;;;1.25;;
44254;SDS011;29933;47.226;15.734;2022-12-18T08:10:59;4.53;;;2.33;;
44254;SDS011;29933;47.226;15.734;2022-12-18T08:13:25;1.88;;;1.55;;
44254;SDS011;29933;47.226;15.734;2022-12-18T08:15:58;6.68;;;2.67;;
44254;SDS011;29933;47.226;15.734;2022-12-18T08:18:31;3.05;;;2.47;;
44254;SDS011;29933;47.226;15.734;2022-12-18T08:21:07;4.07;;;2.25;;
44254;SDS011;29933;47.226;15.734;2022-12-18T08:23:41;3.88;;;2.25;;
44254;SDS011;29933;47.226;15.734;2022-12-18T08:26:07;3.38;;;1.85;;
44254;SDS011;29933;47.226;15.734;2022-12-18T08:28:34;5.10;;;3.17;;
44254;SDS011;29933;47.226;15.734;2022-12-18T08:31:00;2.17;;;2.00;;
44254;SDS011;29933;47.226;15.734;2022-12-18T08:33:26;5.68;;;3.00;;
44254;SDS011;29933;47.226;15.734;2022-12-18T08:35:52;3.80;;;2.97;;
44254;SDS011;29933;47.226;15.734;2022-12-18T08:38:18;5.78;;;3.42;;
44254;SDS011;29933;47.226;15.734;2022-12-18T08:40:44;3.53;;;1.70;;
44254;SDS011;29933;47.226;15.734;2022-12-18T08:43:10;2.42;;;1.98;;
44254;SDS011;29933;47.226;15.734;2022-12-18T08:45:54;2.60;;;2.10;;
44254;SDS011;29933;47.226;15.734;2022-12-18T08:48:20;4.10;;;2.22;;
44254;SDS011;29933;47.226;15.734;2022-12-18T08:50:53;6.28;;;2.88;;
44254;SDS011;29933;47.226;15.734;2022-12-18T08:53:24;7.57;;;2.30;;
44254;SDS011;29933;47.226;15.734;2022-12-18T08:55:50;7.97;;;3.28;;
44254;SDS011;29933;47.226;15.734;2022-12-18T08:58:16;4.95;;;2.45;;
44254;SDS011;29933;47.226;15.734;2022-12-18T09:00:42;6.05;;;2.28;;
44254;SDS011;29933;47.226;15.734;2022-12-18T09:03:15;2.70;;;2.15;;
44254;SDS011;29933;47.226;15.734;2022-12-18T09:05:43;4.90;;;3.17;;
44254;SDS011;29933;47.226;15.734;2022-12-18T09:08:11;9.15;;;3.53;;
44254;SDS011;29933;47.226;15.734;2022-12-18T09:10:46;5.35;;;3.47;;
44254;SDS011;29933;47.226;15.734;2022-12-18T09:13:14;5.20;;;2.80;;
44254;SDS011;29933;47.226;15.734;2022-12-18T09:15:41;5.82;;;2.70;;
44254;SDS011;29933;47.226;15.734;2022-12-18T09:18:16;5.63;;;2.70;;
44254;SDS011;29933;47.226;15.734;2022-12-18T09:20:44;5.07;;;2.30;;
44254;SDS011;29933;47.226;15.734;2022-12-18T09:23:10;3.85;;;2.83;;
44254;SDS011;29933;47.226;15.734;2022-12-18T09:25:37;3.42;;;2.58;;
44254;SDS011;29933;47.226;15.734;2022-12-18T09:28:04;6.30;;;3.00;;
44254;SDS011;29933;47.226;15.734;2022-12-18T09:30:37;3.20;;;2.42;;
44254;SDS011;29933;47.226;15.734;2022-12-18T09:33:04;2.88;;;2.67;;
44254;SDS011;29933;47.226;15.734;2022-12-18T09:35:30;4.95;;;2.30;;
44254;SDS011;29933;47.226;15.734;2022-12-18T09:37:56;4.00;;;2.35;;
44254;SDS011;29933;47.226;15.734;2022-12-18T09:40:24;6.50;;;3.13;;
44254;SDS011;29933;47.226;15.734;2022-12-18T09:42:54;8.45;;;3.70;;
44254;SDS011;29933;47.226;15.734;2022-12-18T09:45:25;14.95;;;6.28;;
44254;SDS011;29933;47.226;15.734;2022-12-18T09:47:52;12.88;;;6.82;;
44254;SDS011;29933;47.226;15.734;2022-12-18T09:52:59;18.15;;;7.82;;
44254;SDS011;29933;47.226;15.734;2022-12-18T09:55:36;17.17;;;8.75;;
44254;SDS011;29933;47.226;15.734;2022-12-18T10:00:34;17.27;;;8.67;;
44254;SDS011;29933;47.226;15.734;2022-12-18T10:03:03;21.83;;;7.45;;
44254;SDS011;29933;47.226;15.734;2022-12-18T10:05:54;18.92;;;8.43;;
44254;SDS011;29933;47.226;15.734;2022-12-18T10:11:48;16.58;;;6.78;;
44254;SDS011;29933;47.226;15.734;2022-12-18T10:20:38;20.45;;;7.40;;
44254;SDS011;29933;47.226;15.734;2022-12-18T10:26:05;13.05;;;6.78;;
44254;SDS011;29933;47.226;15.734;2022-12-18T10:28:34;15.57;;;7.68;;
44254;SDS011;29933;47.226;15.734;2022-12-18T10:31:25;13.85;;;6.68;;
44254;SDS011;29933;47.226;15.734;2022-12-18T10:33:50;15.82;;;8.60;;
44254;SDS011;29933;47.226;15.734;2022-12-18T10:36:19;14.53;;;7.00;;
44254;SDS011;29933;47.226;15.734;2022-12-18T10:38:46;14.90;;;7.75;;
44254;SDS011;29933;47.226;15.734;2022-12-18T10:43:44;17.20;;;8.18;;
44254;SDS011;29933;47.226;15.734;2022-12-18T10:48:39;19.02;;;8.45;;
44254;SDS011;29933;47.226;15.734;2022-12-18T10:51:18;13.02;;;7.15;;
44254;SDS011;29933;47.226;15.734;2022-12-18T10:54:02;11.98;;;6.90;;
44254;SDS011;29933;47.226;15.734;2022-12-18T10:56:33;13.25;;;7.90;;
44254;SDS011;29933;47.226;15.734;2022-12-18T11:04:31;9.57;;;7.13;;
44254;SDS011;29933;47.226;15.734;2022-12-18T11:09:35;14.15;;;7.35;;
44254;SDS011;29933;47.226;15.734;2022-12-18T11:12:04;15.43;;;9.10;;
44254;SDS011;29933;47.226;15.734;2022-12-18T11:14:48;17.88;;;8.27;;
44254;SDS011;29933;47.226;15.734;2022-12-18T11:17:20;15.13;;;8.15;;
44254;SDS011;29933;47.226;15.734;2022-12-18T11:19:59;17.67;;;6.88;;
44254;SDS011;29933;47.226;15.734;2022-12-18T11:23:01;17.85;;;9.38;;
44254;SDS011;29933;47.226;15.734;2022-12-18T11:25:31;14.70;;;8.82;;
44254;SDS011;29933;47.226;15.734;2022-12-18T11:28:02;13.00;;;7.30;;
44254;SDS011;29933;47.226;15.734;2022-12-18T11:33:41;20.67;;;7.97;;
44254;SDS011;29933;47.226;15.734;2022-12-18T11:36:11;18.60;;;8.57;;
44254;SDS011;29933;47.226;15.734;2022-12-18T11:38:39;17.45;;;9.15;;
44254;SDS011;29933;47.226;15.734;2022-12-18T11:41:25;14.40;;;9.53;;
44254;SDS011;29933;47.226;15.734;2022-12-18T11:47:18;19.38;;;8.38;;
44254;SDS011;29933;47.226;15.734;2022-12-18T11:50:20;16.58;;;9.00;;
44254;SDS011;29933;47.226;15.734;2022-12-18T11:53:09;18.85;;;8.93;;
44254;SDS011;29933;47.226;15.734;2022-12-18T11:55:39;22.08;;;10.75;;
44254;SDS011;29933;47.226;15.734;2022-12-18T11:58:28;16.48;;;8.68;;
44254;SDS011;29933;47.226;15.734;2022-12-18T12:01:16;18.08;;;9.15;;
44254;SDS011;29933;47.226;15.734;2022-12-18T12:09:22;16.63;;;8.48;;
44254;SDS011;29933;47.226;15.734;2022-12-18T12:26:08;14.98;;;8.00;;
44254;SDS011;29933;47.226;15.734;2022-12-18T12:31:57;16.23;;;7.70;;
44254;SDS011;29933;47.226;15.734;2022-12-18T12:40:24;14.77;;;9.05;;
44254;SDS011;29933;47.226;15.734;2022-12-18T12:42:55;14.25;;;8.00;;
44254;SDS011;29933;47.226;15.734;2022-12-18T12:45:42;13.20;;;7.32;;
44254;SDS011;29933;47.226;15.734;2022-12-18T12:48:31;18.23;;;7.57;;
44254;SDS011;29933;47.226;15.734;2022-12-18T12:51:26;15.02;;;8.45;;
44254;SDS011;29933;47.226;15.734;2022-12-18T12:53:57;12.63;;;7.22;;
44254;SDS011;29933;47.226;15.734;2022-12-18T12:56:27;16.02;;;7.47;;
44254;SDS011;29933;47.226;15.734;2022-12-18T13:05:33;13.00;;;8.05;;
44254;SDS011;29933;47.226;15.734;2022-12-18T13:08:25;11.90;;;8.02;;
44254;SDS011;29933;47.226;15.734;2022-12-18T13:10:54;14.73;;;7.38;;
44254;SDS011;29933;47.226;15.734;2022-12-18T13:16:20;13.15;;;8.85;;
44254;SDS011;29933;47.226;15.734;2022-12-18T13:18:49;15.98;;;8.38;;
44254;SDS011;29933;47.226;15.734;2022-12-18T13:21:26;16.80;;;9.25;;
44254;SDS011;29933;47.226;15.734;2022-12-18T13:23:55;17.75;;;8.65;;
44254;SDS011;29933;47.226;15.734;2022-12-18T13:26:38;12.75;;;7.43;;
44254;SDS011;29933;47.226;15.734;2022-12-18T13:29:04;14.55;;;7.68;;
44254;SDS011;29933;47.226;15.734;2022-12-18T13:34:22;19.48;;;10.32;;
44254;SDS011;29933;47.226;15.734;2022-12-18T13:36:51;18.67;;;8.98;;
44254;SDS011;29933;47.226;15.734;2022-12-18T13:41:46;19.35;;;8.95;;
44254;SDS011;29933;47.226;15.734;2022-12-18T13:44:34;23.05;;;9.82;;
44254;SDS011;29933;47.226;15.734;2022-12-18T13:47:05;18.25;;;9.02;;
44254;SDS011;29933;47.226;15.734;2022-12-18T13:49:57;22.27;;;9.10;;
44254;SDS011;29933;47.226;15.734;2022-12-18T13:52:24;14.65;;;8.13;;
44254;SDS011;29933;47.226;15.734;2022-12-18T13:55:00;21.85;;;9.68;;
44254;SDS011;29933;47.226;15.734;2022-12-18T13:57:36;20.90;;;10.82;;
44254;SDS011;29933;47.226;15.734;2022-12-18T14:02:47;17.02;;;8.57;;
44254;SDS011;29933;47.226;15.734;2022-12-18T14:05:22;17.38;;;9.50;;
44254;SDS011;29933;47.226;15.734;2022-12-18T14:07:53;21.58;;;10.40;;
44254;SDS011;29933;47.226;15.734;2022-12-18T14:10:24;27.85;;;10.52;;
44254;SDS011;29933;47.226;15.734;2022-12-18T14:12:50;16.90;;;11.40;;
44254;SDS011;29933;47.226;15.734;2022-12-18T14:17:55;22.50;;;10.75;;
44254;SDS011;29933;47.226;15.734;2022-12-18T14:20:27;20.98;;;9.63;;
44254;SDS011;29933;47.226;15.734;2022-12-18T14:22:57;21.65;;;12.27;;
44254;SDS011;29933;47.226;15.734;2022-12-18T14:25:24;18.73;;;9.63;;
44254;SDS011;29933;47.226;15.734;2022-12-18T14:30:37;18.73;;;10.10;;
44254;SDS011;29933;47.226;15.734;2022-12-18T14:35:38;20.58;;;9.70;;
44254;SDS011;29933;47.226;15.734;2022-12-18T14:38:22;19.58;;;10.32;;
44254;SDS011;29933;47.226;15.734;2022-12-18T14:43:36;16.67;;;9.57;;
44254;SDS011;29933;47.226;15.734;2022-12-18T14:46:06;18.35;;;8.95;;
44254;SDS011;29933;47.226;15.734;2022-12-18T14:49:15;22.35;;;9.57;;
44254;SDS011;29933;47.226;15.734;2022-12-18T14:52:03;21.45;;;10.27;;
44254;SDS011;29933;47.226;15.734;2022-12-18T14:54:31;26.17;;;9.88;;
44254;SDS011;29933;47.226;15.734;2022-12-18T14:57:16;25.65;;;11.70;;
44254;SDS011;29933;47.226;15.734;2022-12-18T14:59:55;19.23;;;10.80;;
44254;SDS011;29933;47.226;15.734;2022-12-18T15:02:34;22.25;;;10.63;;
44254;SDS011;29933;47.226;15.734;2022-12-18T15:05:24;20.35;;;10.48;;
44254;SDS011;29933;47.226;15.734;2022-12-18T15:07:56;23.75;;;11.50;;
44254;SDS011;29933;47.226;15.734;2022-12-18T15:10:25;22.17;;;10.52;;
44254;SDS011;29933;47.226;15.734;2022-12-18T15:18:02;21.40;;;10.48;;
44254;SDS011;29933;47.226;15.734;2022-12-18T15:23:28;25.55;;;10.43;;
44254;SDS011;29933;47.226;15.734;2022-12-18T15:26:17;31.50;;;11.88;;
44254;SDS011;29933;47.226;15.734;2022-12-18T15:28:48;24.60;;;12.65;;
44254;SDS011;29933;47.226;15.734;2022-12-18T15:31:30;24.77;;;10.52;;
44254;SDS011;29933;47.226;15.734;2022-12-18T15:36:33;26.13;;;11.18;;
44254;SDS011;29933;47.226;15.734;2022-12-18T15:41:30;31.58;;;13.15;;
44254;SDS011;29933;47.226;15.734;2022-12-18T15:44:01;28.65;;;11.95;;
44254;SDS011;29933;47.226;15.734;2022-12-18T15:46:28;30.00;;;14.63;;
44254;SDS011;29933;47.226;15.734;2022-12-18T15:48:54;40.85;;;15.85;;
44254;SDS011;29933;47.226;15.734;2022-12-18T15:51:32;36.90;;;12.45;;
44254;SDS011;29933;47.226;15.734;2022-12-18T15:54:06;32.88;;;15.52;;
44254;SDS011;29933;47.226;15.734;2022-12-18T15:56:38;30.83;;;13.05;;
44254;SDS011;29933;47.226;15.734;2022-12-18T15:59:23;25.95;;;11.80;;
44254;SDS011;29933;47.226;15.734;2022-12-18T16:01:50;30.92;;;13.60;;
44254;SDS011;29933;47.226;15.734;2022-12-18T16:04:21;27.27;;;12.05;;
44254;SDS011;29933;47.226;15.734;2022-12-18T16:06:49;21.77;;;12.27;;
44254;SDS011;29933;47.226;15.734;2022-12-18T16:09:16;28.70;;;12.63;;
44254;SDS011;29933;47.226;15.734;2022-12-18T16:11:43;32.45;;;14.00;;
44254;SDS011;29933;47.226;15.734;2022-12-18T16:16:50;30.70;;;12.77;;
44254;SDS011;29933;47.226;15.734;2022-12-18T16:19:22;33.90;;;12.77;;
44254;SDS011;29933;47.226;15.734;2022-12-18T16:21:49;37.58;;;16.70;;
44254;SDS011;29933;47.226;15.734;2022-12-18T16:24:18;36.80;;;17.60;;
44254;SDS011;29933;47.226;15.734;2022-12-18T16:27:05;42.25;;;17.08;;
44254;SDS011;29933;47.226;15.734;2022-12-18T16:29:31;40.85;;;17.42;;
44254;SDS011;29933;47.226;15.734;2022-12-18T16:31:58;33.33;;;15.65;;
44254;SDS011;29933;47.226;15.734;2022-12-18T16:34:27;28.75;;;14.50;;
44254;SDS011;29933;47.226;15.734;2022-12-18T16:37:01;35.45;;;14.93;;
44254;SDS011;29933;47.226;15.734;2022-12-18T16:39:30;31.75;;;14.02;;
44254;SDS011;29933;47.226;15.734;2022-12-18T16:41:58;32.95;;;13.95;;
44254;SDS011;29933;47.226;15.734;2022-12-18T16:44:29;27.70;;;12.00;;
44254;SDS011;29933;47.226;15.734;2022-12-18T16:46:55;27.58;;;12.77;;
44254;SDS011;29933;47.226;15.734;2022-12-18T16:49:26;31.60;;;12.10;;
44254;SDS011;29933;47.226;15.734;2022-12-18T16:51:55;30.52;;;13.05;;
44254;SDS011;29933;47.226;15.734;2022-12-18T16:54:21;30.10;;;13.90;;
44254;SDS011;29933;47.226;15.734;2022-12-18T16:56:48;32.38;;;13.73;;
44254;SDS011;29933;47.226;15.734;2022-12-18T16:59:16;31.95;;;13.50;;
44254;SDS011;29933;47.226;15.734;2022-12-18T17:01:45;29.73;;;14.95;;
44254;SDS011;29933;47.226;15.734;2022-12-18T17:04:11;26.55;;;11.70;;
44254;SDS011;29933;47.226;15.734;2022-12-18T17:06:39;39.42;;;14.90;;
44254;SDS011;29933;47.226;15.734;2022-12-18T17:09:12;36.65;;;16.77;;
44254;SDS011;29933;47.226;15.734;2022-12-18T17:11:40;32.97;;;12.50;;
44254;SDS011;29933;47.226;15.734;2022-12-18T17:14:08;38.67;;;14.88;;
44254;SDS011;29933;47.226;15.734;2022-12-18T17:16:39;33.28;;;13.65;;